sensor_id;sensor_type;location;lat;lon;timestamp;pressure;altitude;pressure_sealevel;temperature
82636;BMP280;72317;37.280;-121.948;2023-11-21T00:00:34;101650.22;;;18.51
82636;BMP280;72317;37.280;-121.948;2023-11-21T00:03:00;101657.56;;;18.47
82636;BMP280;72317;37.280;-121.948;2023-11-21T00:05:26;101654.44;;;18.52
82636;BMP280;72317;37.280;-121.948;2023-11-21T00:07:52;101653.84;;;18.37
82636;BMP280;72317;37.280;-121.948;2023-11-21T00:10:18;101662.13;;;18.50
82636;BMP280;72317;37.280;-121.948;2023-11-21T00:12:47;101666.94;;;18.32
82636;BMP280;72317;37.280;-121.948;2023-11-21T00:15:14;101661.56;;;18.32
82636;BMP280;72317;37.280;-121.948;2023-11-21T00:17:40;101663.25;;;18.19
82636;BMP280;72317;37.280;-121.948;2023-11-21T00:20:07;101670.28;;;18.06
82636;BMP280;72317;37.280;-121.948;2023-11-21T00:22:34;101667.09;;;18.18
82636;BMP280;72317;37.280;-121.948;2023-11-21T00:25:01;101668.59;;;18.22
82636;BMP280;72317;37.280;-121.948;2023-11-21T00:27:30;101670.88;;;18.20
82636;BMP280;72317;37.280;-121.948;2023-11-21T00:29:56;101661.81;;;18.07
82636;BMP280;72317;37.280;-121.948;2023-11-21T00:32:22;101661.81;;;18.11
82636;BMP280;72317;37.280;-121.948;2023-11-21T00:34:48;101660.75;;;18.01
82636;BMP280;72317;37.280;-121.948;2023-11-21T00:37:15;101667.50;;;18.13
82636;BMP280;72317;37.280;-121.948;2023-11-21T00:39:41;101664.41;;;17.74
82636;BMP280;72317;37.280;-121.948;2023-11-21T00:42:07;101665.06;;;17.92
82636;BMP280;72317;37.280;-121.948;2023-11-21T00:44:34;101662.84;;;17.80
82636;BMP280;72317;37.280;-121.948;2023-11-21T00:47:03;101657.84;;;17.86
82636;BMP280;72317;37.280;-121.948;2023-11-21T00:49:29;101662.03;;;17.87
82636;BMP280;72317;37.280;-121.948;2023-11-21T00:51:55;101646.94;;;17.59
82636;BMP280;72317;37.280;-121.948;2023-11-21T00:54:23;101656.88;;;17.62
82636;BMP280;72317;37.280;-121.948;2023-11-21T00:56:49;101656.47;;;17.64
82636;BMP280;72317;37.280;-121.948;2023-11-21T00:59:15;101659.56;;;17.62
82636;BMP280;72317;37.280;-121.948;2023-11-21T01:01:42;101649.63;;;17.59
82636;BMP280;72317;37.280;-121.948;2023-11-21T01:04:08;101652.31;;;17.56
82636;BMP280;72317;37.280;-121.948;2023-11-21T01:06:34;101653.94;;;17.46
82636;BMP280;72317;37.280;-121.948;2023-11-21T01:09:00;101653.56;;;17.41
82636;BMP280;72317;37.280;-121.948;2023-11-21T01:11:27;101650.59;;;17.32
82636;BMP280;72317;37.280;-121.948;2023-11-21T01:13:53;101657.09;;;17.34
82636;BMP280;72317;37.280;-121.948;2023-11-21T01:16:19;101662.81;;;17.36
82636;BMP280;72317;37.280;-121.948;2023-11-21T01:18:45;101660.97;;;17.26
82636;BMP280;72317;37.280;-121.948;2023-11-21T01:21:11;101667.06;;;17.30
82636;BMP280;72317;37.280;-121.948;2023-11-21T01:23:37;101668.59;;;17.31
82636;BMP280;72317;37.280;-121.948;2023-11-21T01:26:03;101667.63;;;16.98
82636;BMP280;72317;37.280;-121.948;2023-11-21T01:28:30;101666.53;;;16.88
82636;BMP280;72317;37.280;-121.948;2023-11-21T01:30:56;101672.59;;;16.96
82636;BMP280;72317;37.280;-121.948;2023-11-21T01:33:23;101672.28;;;16.87
82636;BMP280;72317;37.280;-121.948;2023-11-21T01:35:50;101673.00;;;16.94
82636;BMP280;72317;37.280;-121.948;2023-11-21T01:38:19;101673.44;;;16.82
82636;BMP280;72317;37.280;-121.948;2023-11-21T01:40:48;101666.97;;;16.76
82636;BMP280;72317;37.280;-121.948;2023-11-21T01:43:14;101682.63;;;16.81
82636;BMP280;72317;37.280;-121.948;2023-11-21T01:45:41;101682.34;;;16.51
82636;BMP280;72317;37.280;-121.948;2023-11-21T01:48:09;101678.13;;;16.61
82636;BMP280;72317;37.280;-121.948;2023-11-21T01:50:37;101675.47;;;16.47
82636;BMP280;72317;37.280;-121.948;2023-11-21T01:53:10;101681.97;;;16.46
82636;BMP280;72317;37.280;-121.948;2023-11-21T01:55:41;101685.81;;;16.31
82636;BMP280;72317;37.280;-121.948;2023-11-21T01:58:14;101683.16;;;16.31
82636;BMP280;72317;37.280;-121.948;2023-11-21T02:00:42;101679.34;;;16.28
82636;BMP280;72317;37.280;-121.948;2023-11-21T02:03:10;101677.06;;;16.27
82636;BMP280;72317;37.280;-121.948;2023-11-21T02:05:37;101678.19;;;16.12
82636;BMP280;72317;37.280;-121.948;2023-11-21T02:08:07;101675.94;;;16.04
82636;BMP280;72317;37.280;-121.948;2023-11-21T02:10:35;101680.13;;;15.91
82636;BMP280;72317;37.280;-121.948;2023-11-21T02:13:04;101678.22;;;15.88
82636;BMP280;72317;37.280;-121.948;2023-11-21T02:15:34;101677.44;;;15.73
82636;BMP280;72317;37.280;-121.948;2023-11-21T02:18:01;101673.63;;;15.74
82636;BMP280;72317;37.280;-121.948;2023-11-21T02:20:29;101671.34;;;15.62
82636;BMP280;72317;37.280;-121.948;2023-11-21T02:22:57;101670.59;;;15.58
82636;BMP280;72317;37.280;-121.948;2023-11-21T02:25:33;101676.69;;;15.62
82636;BMP280;72317;37.280;-121.948;2023-11-21T02:28:01;101677.84;;;15.68
82636;BMP280;72317;37.280;-121.948;2023-11-21T02:30:29;101670.59;;;15.79
82636;BMP280;72317;37.280;-121.948;2023-11-21T02:32:58;101667.09;;;15.40
82636;BMP280;72317;37.280;-121.948;2023-11-21T02:35:25;101667.47;;;15.35
82636;BMP280;72317;37.280;-121.948;2023-11-21T02:37:53;101671.31;;;15.52
82636;BMP280;72317;37.280;-121.948;2023-11-21T02:40:20;101673.59;;;15.32
82636;BMP280;72317;37.280;-121.948;2023-11-21T02:42:48;101678.16;;;15.35
82636;BMP280;72317;37.280;-121.948;2023-11-21T02:45:17;101679.63;;;15.19
82636;BMP280;72317;37.280;-121.948;2023-11-21T02:47:45;101687.59;;;15.09
82636;BMP280;72317;37.280;-121.948;2023-11-21T02:50:13;101688.06;;;15.28
82636;BMP280;72317;37.280;-121.948;2023-11-21T02:52:40;101687.28;;;15.27
82636;BMP280;72317;37.280;-121.948;2023-11-21T02:55:08;101683.78;;;15.10
82636;BMP280;72317;37.280;-121.948;2023-11-21T02:57:43;101687.59;;;15.05
82636;BMP280;72317;37.280;-121.948;2023-11-21T03:00:10;101690.22;;;14.91
82636;BMP280;72317;37.280;-121.948;2023-11-21T03:02:39;101686.03;;;14.97
82636;BMP280;72317;37.280;-121.948;2023-11-21T03:05:07;101684.09;;;14.91
82636;BMP280;72317;37.280;-121.948;2023-11-21T03:07:38;101695.47;;;14.77
82636;BMP280;72317;37.280;-121.948;2023-11-21T03:10:06;101689.75;;;14.79
82636;BMP280;72317;37.280;-121.948;2023-11-21T03:12:35;101698.22;;;14.88
82636;BMP280;72317;37.280;-121.948;2023-11-21T03:15:01;101700.03;;;14.73
82636;BMP280;72317;37.280;-121.948;2023-11-21T03:17:28;101698.16;;;14.84
82636;BMP280;72317;37.280;-121.948;2023-11-21T03:19:54;101691.53;;;14.57
82636;BMP280;72317;37.280;-121.948;2023-11-21T03:22:23;101699.22;;;14.62
82636;BMP280;72317;37.280;-121.948;2023-11-21T03:24:49;101702.56;;;14.49
82636;BMP280;72317;37.280;-121.948;2023-11-21T03:27:16;101707.53;;;14.54
82636;BMP280;72317;37.280;-121.948;2023-11-21T03:29:43;101708.56;;;14.39
82636;BMP280;72317;37.280;-121.948;2023-11-21T03:32:10;101711.97;;;14.36
82636;BMP280;72317;37.280;-121.948;2023-11-21T03:34:56;101711.72;;;14.48
82636;BMP280;72317;37.280;-121.948;2023-11-21T03:37:24;101714.72;;;14.43
82636;BMP280;72317;37.280;-121.948;2023-11-21T03:39:50;101705.00;;;14.21
82636;BMP280;72317;37.280;-121.948;2023-11-21T03:42:17;101712.34;;;14.31
82636;BMP280;72317;37.280;-121.948;2023-11-21T03:44:43;101709.38;;;13.96
82636;BMP280;72317;37.280;-121.948;2023-11-21T03:47:10;101716.50;;;14.28
82636;BMP280;72317;37.280;-121.948;2023-11-21T03:49:36;101712.50;;;14.05
82636;BMP280;72317;37.280;-121.948;2023-11-21T03:52:02;101721.47;;;14.30
82636;BMP280;72317;37.280;-121.948;2023-11-21T03:54:28;101731.94;;;14.09
82636;BMP280;72317;37.280;-121.948;2023-11-21T03:56:54;101729.69;;;14.15
82636;BMP280;72317;37.280;-121.948;2023-11-21T03:59:20;101735.69;;;14.05
82636;BMP280;72317;37.280;-121.948;2023-11-21T04:01:48;101736.84;;;14.04
82636;BMP280;72317;37.280;-121.948;2023-11-21T04:04:15;101744.03;;;13.96
82636;BMP280;72317;37.280;-121.948;2023-11-21T04:06:41;101744.41;;;13.98
82636;BMP280;72317;37.280;-121.948;2023-11-21T04:09:07;101749.34;;;13.96
82636;BMP280;72317;37.280;-121.948;2023-11-21T04:11:33;101745.59;;;13.68
82636;BMP280;72317;37.280;-121.948;2023-11-21T04:13:59;101746.13;;;13.80
82636;BMP280;72317;37.280;-121.948;2023-11-21T04:16:26;101758.09;;;13.93
82636;BMP280;72317;37.280;-121.948;2023-11-21T04:18:52;101761.41;;;13.83
82636;BMP280;72317;37.280;-121.948;2023-11-21T04:21:18;101763.03;;;13.58
82636;BMP280;72317;37.280;-121.948;2023-11-21T04:23:44;101763.34;;;13.53
82636;BMP280;72317;37.280;-121.948;2023-11-21T04:26:10;101764.16;;;13.57
82636;BMP280;72317;37.280;-121.948;2023-11-21T04:28:36;101769.47;;;13.57
82636;BMP280;72317;37.280;-121.948;2023-11-21T04:31:02;101762.09;;;13.44
82636;BMP280;72317;37.280;-121.948;2023-11-21T04:33:29;101766.97;;;13.38
82636;BMP280;72317;37.280;-121.948;2023-11-21T04:35:56;101769.19;;;13.33
82636;BMP280;72317;37.280;-121.948;2023-11-21T04:38:22;101762.94;;;13.51
82636;BMP280;72317;37.280;-121.948;2023-11-21T04:40:48;101767.47;;;13.47
82636;BMP280;72317;37.280;-121.948;2023-11-21T04:43:14;101772.84;;;13.22
82636;BMP280;72317;37.280;-121.948;2023-11-21T04:45:40;101766.50;;;13.04
82636;BMP280;72317;37.280;-121.948;2023-11-21T04:48:07;101762.56;;;12.98
82636;BMP280;72317;37.280;-121.948;2023-11-21T04:50:34;101766.50;;;13.04
82636;BMP280;72317;37.280;-121.948;2023-11-21T04:53:00;101762.34;;;13.06
82636;BMP280;72317;37.280;-121.948;2023-11-21T04:55:26;101768.63;;;13.21
82636;BMP280;72317;37.280;-121.948;2023-11-21T04:57:55;101774.25;;;13.16
82636;BMP280;72317;37.280;-121.948;2023-11-21T05:00:22;101774.97;;;12.87
82636;BMP280;72317;37.280;-121.948;2023-11-21T05:02:48;101772.38;;;12.90
82636;BMP280;72317;37.280;-121.948;2023-11-21T05:05:14;101766.84;;;13.02
82636;BMP280;72317;37.280;-121.948;2023-11-21T05:07:41;101770.78;;;12.86
82636;BMP280;72317;37.280;-121.948;2023-11-21T05:10:08;101771.09;;;12.81
82636;BMP280;72317;37.280;-121.948;2023-11-21T05:12:37;101780.91;;;12.77
82636;BMP280;72317;37.280;-121.948;2023-11-21T05:15:07;101776.47;;;12.62
82636;BMP280;72317;37.280;-121.948;2023-11-21T05:17:37;101766.94;;;12.61
82636;BMP280;72317;37.280;-121.948;2023-11-21T05:20:15;101778.34;;;12.58
82636;BMP280;72317;37.280;-121.948;2023-11-21T05:22:49;101775.69;;;12.39
82636;BMP280;72317;37.280;-121.948;2023-11-21T05:25:16;101773.19;;;12.46
82636;BMP280;72317;37.280;-121.948;2023-11-21T05:27:46;101769.59;;;12.35
82636;BMP280;72317;37.280;-121.948;2023-11-21T05:30:13;101780.03;;;12.47
82636;BMP280;72317;37.280;-121.948;2023-11-21T05:32:40;101783.69;;;12.39
82636;BMP280;72317;37.280;-121.948;2023-11-21T05:35:10;101785.16;;;12.36
82636;BMP280;72317;37.280;-121.948;2023-11-21T05:37:41;101785.41;;;12.28
82636;BMP280;72317;37.280;-121.948;2023-11-21T05:40:08;101788.00;;;12.47
82636;BMP280;72317;37.280;-121.948;2023-11-21T05:42:35;101788.22;;;12.57
82636;BMP280;72317;37.280;-121.948;2023-11-21T05:45:04;101785.00;;;12.71
82636;BMP280;72317;37.280;-121.948;2023-11-21T05:47:41;101779.19;;;12.43
82636;BMP280;72317;37.280;-121.948;2023-11-21T05:50:09;101778.84;;;12.44
82636;BMP280;72317;37.280;-121.948;2023-11-21T05:52:39;101785.56;;;12.16
82636;BMP280;72317;37.280;-121.948;2023-11-21T05:55:06;101792.50;;;12.43
82636;BMP280;72317;37.280;-121.948;2023-11-21T05:57:39;101786.19;;;12.51
82636;BMP280;72317;37.280;-121.948;2023-11-21T06:00:07;101792.25;;;12.29
82636;BMP280;72317;37.280;-121.948;2023-11-21T06:02:48;101805.28;;;12.15
82636;BMP280;72317;37.280;-121.948;2023-11-21T06:05:18;101800.00;;;12.37
82636;BMP280;72317;37.280;-121.948;2023-11-21T06:07:44;101793.84;;;12.33
82636;BMP280;72317;37.280;-121.948;2023-11-21T06:10:11;101797.84;;;12.05
82636;BMP280;72317;37.280;-121.948;2023-11-21T06:12:40;101799.84;;;12.08
82636;BMP280;72317;37.280;-121.948;2023-11-21T06:15:09;101806.88;;;12.20
82636;BMP280;72317;37.280;-121.948;2023-11-21T06:17:40;101806.88;;;11.97
82636;BMP280;72317;37.280;-121.948;2023-11-21T06:20:10;101810.38;;;12.05
82636;BMP280;72317;37.280;-121.948;2023-11-21T06:22:43;101806.13;;;12.00
82636;BMP280;72317;37.280;-121.948;2023-11-21T06:25:10;101805.81;;;12.05
82636;BMP280;72317;37.280;-121.948;2023-11-21T06:27:46;101795.94;;;11.83
82636;BMP280;72317;37.280;-121.948;2023-11-21T06:30:13;101799.97;;;11.96
82636;BMP280;72317;37.280;-121.948;2023-11-21T06:32:41;101798.16;;;12.00
82636;BMP280;72317;37.280;-121.948;2023-11-21T06:35:11;101797.03;;;12.01
82636;BMP280;72317;37.280;-121.948;2023-11-21T06:37:38;101796.25;;;12.01
82636;BMP280;72317;37.280;-121.948;2023-11-21T06:40:05;101802.69;;;12.00
82636;BMP280;72317;37.280;-121.948;2023-11-21T06:42:32;101785.38;;;11.87
82636;BMP280;72317;37.280;-121.948;2023-11-21T06:44:59;101784.94;;;11.85
82636;BMP280;72317;37.280;-121.948;2023-11-21T06:47:29;101795.84;;;11.80
82636;BMP280;72317;37.280;-121.948;2023-11-21T06:49:56;101796.81;;;11.91
82636;BMP280;72317;37.280;-121.948;2023-11-21T06:52:23;101785.53;;;11.94
82636;BMP280;72317;37.280;-121.948;2023-11-21T06:54:50;101784.88;;;12.00
82636;BMP280;72317;37.280;-121.948;2023-11-21T06:57:16;101781.59;;;11.69
82636;BMP280;72317;37.280;-121.948;2023-11-21T06:59:42;101778.47;;;11.82
82636;BMP280;72317;37.280;-121.948;2023-11-21T07:02:09;101778.53;;;11.86
82636;BMP280;72317;37.280;-121.948;2023-11-21T07:04:38;101780.81;;;11.68
82636;BMP280;72317;37.280;-121.948;2023-11-21T07:07:06;101781.03;;;11.60
82636;BMP280;72317;37.280;-121.948;2023-11-21T07:09:32;101780.56;;;11.73
82636;BMP280;72317;37.280;-121.948;2023-11-21T07:11:59;101772.66;;;11.77
82636;BMP280;72317;37.280;-121.948;2023-11-21T07:14:25;101774.28;;;11.81
82636;BMP280;72317;37.280;-121.948;2023-11-21T07:16:52;101772.59;;;11.54
82636;BMP280;72317;37.280;-121.948;2023-11-21T07:19:18;101779.53;;;11.43
82636;BMP280;72317;37.280;-121.948;2023-11-21T07:21:45;101783.31;;;11.27
82636;BMP280;72317;37.280;-121.948;2023-11-21T07:24:12;101787.31;;;11.18
82636;BMP280;72317;37.280;-121.948;2023-11-21T07:26:38;101791.75;;;11.13
82636;BMP280;72317;37.280;-121.948;2023-11-21T07:29:04;101799.88;;;11.05
82636;BMP280;72317;37.280;-121.948;2023-11-21T07:31:31;101795.00;;;11.07
82636;BMP280;72317;37.280;-121.948;2023-11-21T07:34:00;101794.19;;;11.03
82636;BMP280;72317;37.280;-121.948;2023-11-21T07:36:27;101795.63;;;11.01
82636;BMP280;72317;37.280;-121.948;2023-11-21T07:38:53;101800.31;;;11.07
82636;BMP280;72317;37.280;-121.948;2023-11-21T07:41:20;101794.69;;;11.09
82636;BMP280;72317;37.280;-121.948;2023-11-21T07:43:47;101797.53;;;11.00
82636;BMP280;72317;37.280;-121.948;2023-11-21T07:46:13;101801.22;;;10.96
82636;BMP280;72317;37.280;-121.948;2023-11-21T07:48:41;101803.06;;;10.95
82636;BMP280;72317;37.280;-121.948;2023-11-21T07:51:11;101800.31;;;10.92
82636;BMP280;72317;37.280;-121.948;2023-11-21T07:53:39;101802.03;;;11.00
82636;BMP280;72317;37.280;-121.948;2023-11-21T07:56:06;101808.28;;;11.07
82636;BMP280;72317;37.280;-121.948;2023-11-21T07:58:34;101809.50;;;10.94
82636;BMP280;72317;37.280;-121.948;2023-11-21T08:01:01;101812.81;;;11.07
82636;BMP280;72317;37.280;-121.948;2023-11-21T08:03:28;101809.81;;;10.93
82636;BMP280;72317;37.280;-121.948;2023-11-21T08:05:58;101828.25;;;11.01
82636;BMP280;72317;37.280;-121.948;2023-11-21T08:08:25;101826.69;;;11.00
82636;BMP280;72317;37.280;-121.948;2023-11-21T08:10:52;101826.25;;;10.98
82636;BMP280;72317;37.280;-121.948;2023-11-21T08:13:26;101822.47;;;10.99
82636;BMP280;72317;37.280;-121.948;2023-11-21T08:15:55;101827.47;;;10.85
82636;BMP280;72317;37.280;-121.948;2023-11-21T08:18:22;101816.75;;;10.97
82636;BMP280;72317;37.280;-121.948;2023-11-21T08:20:48;101819.00;;;10.80
82636;BMP280;72317;37.280;-121.948;2023-11-21T08:23:15;101821.28;;;10.97
82636;BMP280;72317;37.280;-121.948;2023-11-21T08:25:44;101822.47;;;10.84
82636;BMP280;72317;37.280;-121.948;2023-11-21T08:28:11;101826.56;;;10.66
82636;BMP280;72317;37.280;-121.948;2023-11-21T08:30:38;101824.94;;;10.61
82636;BMP280;72317;37.280;-121.948;2023-11-21T08:33:05;101823.75;;;10.74
82636;BMP280;72317;37.280;-121.948;2023-11-21T08:35:31;101825.44;;;10.67
82636;BMP280;72317;37.280;-121.948;2023-11-21T08:37:57;101823.75;;;10.59
82636;BMP280;72317;37.280;-121.948;2023-11-21T08:40:23;101823.50;;;10.64
82636;BMP280;72317;37.280;-121.948;2023-11-21T08:42:51;101828.09;;;10.67
82636;BMP280;72317;37.280;-121.948;2023-11-21T08:45:19;101830.72;;;10.51
82636;BMP280;72317;37.280;-121.948;2023-11-21T08:47:45;101838.31;;;10.65
82636;BMP280;72317;37.280;-121.948;2023-11-21T08:50:11;101843.66;;;10.53
82636;BMP280;72317;37.280;-121.948;2023-11-21T08:52:39;101838.34;;;10.25
82636;BMP280;72317;37.280;-121.948;2023-11-21T08:55:07;101837.84;;;10.47
82636;BMP280;72317;37.280;-121.948;2023-11-21T08:57:43;101835.22;;;10.35
82636;BMP280;72317;37.280;-121.948;2023-11-21T09:00:10;101833.81;;;10.26
82636;BMP280;72317;37.280;-121.948;2023-11-21T09:02:45;101828.75;;;10.33
82636;BMP280;72317;37.280;-121.948;2023-11-21T09:05:12;101820.84;;;10.21
82636;BMP280;72317;37.280;-121.948;2023-11-21T09:07:40;101818.88;;;10.33
82636;BMP280;72317;37.280;-121.948;2023-11-21T09:10:09;101827.84;;;10.29
82636;BMP280;72317;37.280;-121.948;2023-11-21T09:12:36;101825.34;;;10.20
82636;BMP280;72317;37.280;-121.948;2023-11-21T09:15:07;101829.22;;;10.11
82636;BMP280;72317;37.280;-121.948;2023-11-21T09:17:35;101832.31;;;10.25
82636;BMP280;72317;37.280;-121.948;2023-11-21T09:20:02;101837.97;;;10.11
82636;BMP280;72317;37.280;-121.948;2023-11-21T09:22:31;101841.25;;;10.20
82636;BMP280;72317;37.280;-121.948;2023-11-21T09:24:57;101850.41;;;10.23
82636;BMP280;72317;37.280;-121.948;2023-11-21T09:27:23;101846.22;;;10.22
82636;BMP280;72317;37.280;-121.948;2023-11-21T09:29:51;101849.31;;;10.24
82636;BMP280;72317;37.280;-121.948;2023-11-21T09:32:18;101854.19;;;10.22
82636;BMP280;72317;37.280;-121.948;2023-11-21T09:34:44;101849.97;;;10.21
82636;BMP280;72317;37.280;-121.948;2023-11-21T09:37:11;101849.78;;;10.14
82636;BMP280;72317;37.280;-121.948;2023-11-21T09:39:37;101846.34;;;10.13
82636;BMP280;72317;37.280;-121.948;2023-11-21T09:42:11;101857.25;;;10.24
82636;BMP280;72317;37.280;-121.948;2023-11-21T09:47:14;101854.03;;;10.30
82636;BMP280;72317;37.280;-121.948;2023-11-21T09:49:46;101856.19;;;10.13
82636;BMP280;72317;37.280;-121.948;2023-11-21T09:52:25;101858.19;;;10.04
82636;BMP280;72317;37.280;-121.948;2023-11-21T09:54:52;101862.00;;;10.18
82636;BMP280;72317;37.280;-121.948;2023-11-21T09:57:28;101864.00;;;10.09
82636;BMP280;72317;37.280;-121.948;2023-11-21T09:59:55;101865.16;;;10.08
82636;BMP280;72317;37.280;-121.948;2023-11-21T10:02:28;101860.78;;;9.89
82636;BMP280;72317;37.280;-121.948;2023-11-21T10:04:59;101865.28;;;9.88
82636;BMP280;72317;37.280;-121.948;2023-11-21T10:07:26;101865.06;;;9.81
82636;BMP280;72317;37.280;-121.948;2023-11-21T10:09:54;101870.59;;;9.76
82636;BMP280;72317;37.280;-121.948;2023-11-21T10:12:23;101865.41;;;9.68
82636;BMP280;72317;37.280;-121.948;2023-11-21T10:14:50;101871.69;;;9.75
82636;BMP280;72317;37.280;-121.948;2023-11-21T10:17:19;101866.31;;;9.72
82636;BMP280;72317;37.280;-121.948;2023-11-21T10:19:47;101869.47;;;9.77
82636;BMP280;72317;37.280;-121.948;2023-11-21T10:22:16;101867.28;;;9.67
82636;BMP280;72317;37.280;-121.948;2023-11-21T10:24:43;101869.81;;;9.76
82636;BMP280;72317;37.280;-121.948;2023-11-21T10:27:09;101879.19;;;9.85
82636;BMP280;72317;37.280;-121.948;2023-11-21T10:29:35;101865.72;;;9.78
82636;BMP280;72317;37.280;-121.948;2023-11-21T10:32:02;101874.13;;;9.68
82636;BMP280;72317;37.280;-121.948;2023-11-21T10:34:29;101879.63;;;9.75
82636;BMP280;72317;37.280;-121.948;2023-11-21T10:36:55;101881.31;;;9.80
82636;BMP280;72317;37.280;-121.948;2023-11-21T10:39:24;101874.34;;;9.75
82636;BMP280;72317;37.280;-121.948;2023-11-21T10:41:56;101878.97;;;9.54
82636;BMP280;72317;37.280;-121.948;2023-11-21T10:44:22;101866.31;;;9.72
82636;BMP280;72317;37.280;-121.948;2023-11-21T10:46:53;101872.25;;;9.57
82636;BMP280;72317;37.280;-121.948;2023-11-21T10:49:26;101874.78;;;9.53
82636;BMP280;72317;37.280;-121.948;2023-11-21T10:51:56;101873.91;;;9.49
82636;BMP280;72317;37.280;-121.948;2023-11-21T10:54:23;101863.09;;;9.54
82636;BMP280;72317;37.280;-121.948;2023-11-21T10:56:56;101864.63;;;9.43
82636;BMP280;72317;37.280;-121.948;2023-11-21T10:59:22;101866.94;;;9.33
82636;BMP280;72317;37.280;-121.948;2023-11-21T11:01:51;101865.50;;;9.35
82636;BMP280;72317;37.280;-121.948;2023-11-21T11:04:19;101864.09;;;9.38
82636;BMP280;72317;37.280;-121.948;2023-11-21T11:06:55;101862.84;;;9.23
82636;BMP280;72317;37.280;-121.948;2023-11-21T11:09:23;101857.56;;;9.35
82636;BMP280;72317;37.280;-121.948;2023-11-21T11:11:51;101862.31;;;9.30
82636;BMP280;72317;37.280;-121.948;2023-11-21T11:14:17;101859.59;;;9.38
82636;BMP280;72317;37.280;-121.948;2023-11-21T11:16:45;101869.94;;;9.31
82636;BMP280;72317;37.280;-121.948;2023-11-21T11:19:11;101870.59;;;9.28
82636;BMP280;72317;37.280;-121.948;2023-11-21T11:30:46;101876.22;;;9.27
82636;BMP280;72317;37.280;-121.948;2023-11-21T11:33:57;101886.88;;;9.18
82636;BMP280;72317;37.280;-121.948;2023-11-21T11:37:00;101904.63;;;9.18
82636;BMP280;72317;37.280;-121.948;2023-11-21T11:39:41;101908.94;;;9.22
82636;BMP280;72317;37.280;-121.948;2023-11-21T11:42:11;101898.47;;;9.26
82636;BMP280;72317;37.280;-121.948;2023-11-21T11:47:28;101891.88;;;8.99
82636;BMP280;72317;37.280;-121.948;2023-11-21T11:50:09;101878.53;;;8.84
82636;BMP280;72317;37.280;-121.948;2023-11-21T11:52:50;101868.97;;;8.91
82636;BMP280;72317;37.280;-121.948;2023-11-21T11:55:18;101861.50;;;8.93
82636;BMP280;72317;37.280;-121.948;2023-11-21T11:57:46;101855.09;;;9.06
82636;BMP280;72317;37.280;-121.948;2023-11-21T12:03:00;101844.97;;;8.96
82636;BMP280;72317;37.280;-121.948;2023-11-21T12:05:31;101846.41;;;9.06
82636;BMP280;72317;37.280;-121.948;2023-11-21T12:08:11;101845.56;;;8.81
82636;BMP280;72317;37.280;-121.948;2023-11-21T12:10:39;101840.94;;;8.78
82636;BMP280;72317;37.280;-121.948;2023-11-21T12:13:10;101852.50;;;8.74
82636;BMP280;72317;37.280;-121.948;2023-11-21T12:15:38;101864.44;;;8.92
82636;BMP280;72317;37.280;-121.948;2023-11-21T12:18:06;101865.94;;;9.01
82636;BMP280;72317;37.280;-121.948;2023-11-21T12:20:32;101880.00;;;8.93
82636;BMP280;72317;37.280;-121.948;2023-11-21T12:23:05;101899.38;;;8.85
82636;BMP280;72317;37.280;-121.948;2023-11-21T12:25:31;101904.09;;;8.92
82636;BMP280;72317;37.280;-121.948;2023-11-21T12:27:59;101915.94;;;9.06
82636;BMP280;72317;37.280;-121.948;2023-11-21T12:30:36;101930.25;;;8.93
82636;BMP280;72317;37.280;-121.948;2023-11-21T12:33:04;101947.97;;;8.93
82636;BMP280;72317;37.280;-121.948;2023-11-21T12:35:35;101976.03;;;8.85
82636;BMP280;72317;37.280;-121.948;2023-11-21T12:38:04;101983.97;;;8.97
82636;BMP280;72317;37.280;-121.948;2023-11-21T12:40:31;101999.69;;;8.82
82636;BMP280;72317;37.280;-121.948;2023-11-21T12:42:59;101994.31;;;8.90
82636;BMP280;72317;37.280;-121.948;2023-11-21T12:45:27;101990.00;;;8.86
82636;BMP280;72317;37.280;-121.948;2023-11-21T12:48:02;101981.53;;;8.52
82636;BMP280;72317;37.280;-121.948;2023-11-21T12:50:34;101981.28;;;8.45
82636;BMP280;72317;37.280;-121.948;2023-11-21T12:53:11;101984.25;;;8.43
82636;BMP280;72317;37.280;-121.948;2023-11-21T12:55:38;101987.91;;;8.51
82636;BMP280;72317;37.280;-121.948;2023-11-21T12:58:07;101993.47;;;8.58
82636;BMP280;72317;37.280;-121.948;2023-11-21T13:00:44;101996.44;;;8.36
82636;BMP280;72317;37.280;-121.948;2023-11-21T13:03:12;102000.38;;;8.50
82636;BMP280;72317;37.280;-121.948;2023-11-21T13:05:43;102006.03;;;8.61
82636;BMP280;72317;37.280;-121.948;2023-11-21T13:08:16;101994.19;;;8.46
82636;BMP280;72317;37.280;-121.948;2023-11-21T13:10:46;101989.72;;;8.59
82636;BMP280;72317;37.280;-121.948;2023-11-21T13:13:15;102002.69;;;8.52
82636;BMP280;72317;37.280;-121.948;2023-11-21T13:15:51;102005.50;;;8.67
82636;BMP280;72317;37.280;-121.948;2023-11-21T13:18:28;102005.28;;;8.60
82636;BMP280;72317;37.280;-121.948;2023-11-21T13:20:58;101993.31;;;8.34
82636;BMP280;72317;37.280;-121.948;2023-11-21T13:23:26;101990.06;;;8.37
82636;BMP280;72317;37.280;-121.948;2023-11-21T13:25:55;102000.41;;;8.42
82636;BMP280;72317;37.280;-121.948;2023-11-21T13:28:21;102016.75;;;8.64
82636;BMP280;72317;37.280;-121.948;2023-11-21T13:30:49;102034.72;;;8.50
82636;BMP280;72317;37.280;-121.948;2023-11-21T13:33:18;102033.41;;;8.65
82636;BMP280;72317;37.280;-121.948;2023-11-21T13:35:47;102015.72;;;8.57
82636;BMP280;72317;37.280;-121.948;2023-11-21T13:38:16;102020.81;;;8.33
82636;BMP280;72317;37.280;-121.948;2023-11-21T13:40:47;102030.78;;;8.36
82636;BMP280;72317;37.280;-121.948;2023-11-21T13:43:19;102036.56;;;8.50
82636;BMP280;72317;37.280;-121.948;2023-11-21T13:45:48;102034.97;;;8.37
82636;BMP280;72317;37.280;-121.948;2023-11-21T13:48:17;102042.22;;;8.40